PWSweather.com
Personal Weather Stations
Station Observations
PERMAKAI
WaiukuNZ

WaiukuNZ

Lat: -37.22, Lon: 174.77

Elevation: 219.816

Station Type: WH3081

Latest ConditionsUpdated 4:30:00 PM GMT+12:12 Thursday, Apr 25, 2019
Currently Today's Max Today's Min Today's Average
Temperature 64.9°F18.3°C 70.5°F21.4°C 59.0°F15.0°C 63.4°F17.4°C
Dew Point 60.3°F15.7°C 61.2°F16.2°C 58.1°F14.5°C 59.5°F15.3°C
Winds 3.1 mph SW5.0 kmh SW 6.0 mph -9.7 kmh - - 2.4 mph 3.9 kmh
Wind Gusts 5.4 mph8.7 kmh 9.8 mph15.8 kmh - -
Humidity 85% 99% 66% 88%
Pressure 29.96 in1014.6 mb 30.02 in1016.6 mb 29.96 in1014.6 mb -
Hour Temp Dew Point Humidity Winds Wind Gusts Pressure Precip Precip Rate Daily Precip Total
04:30 PM 64.9°F18.3°C 60.3°F15.7°C 85% 3.1 mph SW5.0 kmh SW 5.4 mph8.7 kmh 29.96 in1014.6 mb 0.00 in0.0 mm 0.00 in0.0 mm 0.00 in0.0 mm
04:00 PM 66.0°F18.9°C 58.6°F14.8°C 77% 3.8 mph SW6.1 kmh SW 5.4 mph8.7 kmh 29.96 in1014.6 mb 0.00 in0.0 mm 0.00 in0.0 mm 0.00 in0.0 mm
03:30 PM 67.6°F19.8°C 60.2°F15.7°C 77% 2.2 mph NW3.5 kmh NW 7.6 mph12.2 kmh 29.96 in1014.6 mb 0.00 in0.0 mm 0.00 in0.0 mm 0.00 in0.0 mm
03:00 PM 67.8°F19.9°C 59.6°F15.3°C 75% 4.5 mph SW7.2 kmh SW 8.3 mph13.4 kmh 29.97 in1014.9 mb 0.00 in0.0 mm 0.00 in0.0 mm 0.00 in0.0 mm
02:30 PM 69.8°F21.0°C 59.2°F15.1°C 69% 6.0 mph NW9.7 kmh NW 9.8 mph15.8 kmh 29.96 in1014.6 mb 0.00 in0.0 mm 0.00 in0.0 mm 0.00 in0.0 mm
02:00 PM 69.4°F20.8°C 59.2°F15.1°C 70% 5.4 mph W8.7 kmh W 9.2 mph14.8 kmh 29.97 in1014.9 mb 0.00 in0.0 mm 0.00 in0.0 mm 0.00 in0.0 mm
01:30 PM 69.6°F20.9°C 59.8°F15.4°C 71% 4.5 mph WNW7.2 kmh WNW 6.0 mph9.7 kmh 29.97 in1014.9 mb 0.00 in0.0 mm 0.00 in0.0 mm 0.00 in0.0 mm
01:00 PM 70.5°F21.4°C 60.3°F15.7°C 70% 5.4 mph W8.7 kmh W 8.3 mph13.4 kmh 29.98 in1015.2 mb 0.00 in0.0 mm 0.00 in0.0 mm 0.00 in0.0 mm
12:30 PM 70.0°F21.1°C 58.1°F14.5°C 66% 3.8 mph NW6.1 kmh NW 4.5 mph7.2 kmh 29.98 in1015.2 mb 0.00 in0.0 mm 0.00 in0.0 mm 0.00 in0.0 mm
12:00 PM 68.9°F20.5°C 59.5°F15.3°C 72% 2.2 mph WSW3.5 kmh WSW 3.8 mph6.1 kmh 30.01 in1016.3 mb 0.00 in0.0 mm 0.00 in0.0 mm 0.00 in0.0 mm
11:30 AM 67.8°F19.9°C 60.7°F15.9°C 78% 3.1 mph SW5.0 kmh SW 5.4 mph8.7 kmh 30.02 in1016.6 mb 0.00 in0.0 mm 0.00 in0.0 mm 0.00 in0.0 mm
11:00 AM 66.9°F19.4°C 60.5°F15.8°C 80% 3.1 mph SW5.0 kmh SW 5.4 mph8.7 kmh 30.01 in1016.3 mb 0.00 in0.0 mm 0.00 in0.0 mm 0.00 in0.0 mm
10:30 AM 65.1°F18.4°C 59.5°F15.3°C 82% 2.2 mph W3.5 kmh W 3.8 mph6.1 kmh 30.02 in1016.6 mb 0.00 in0.0 mm 0.00 in0.0 mm 0.00 in0.0 mm
10:00 AM 65.1°F18.4°C 60.2°F15.7°C 84% 1.6 mph SE2.6 kmh SE 3.1 mph5.0 kmh 30.01 in1016.3 mb 0.00 in0.0 mm 0.00 in0.0 mm 0.00 in0.0 mm
09:30 AM 64.0°F17.8°C 60.1°F15.6°C 87% 3.8 mph S6.1 kmh S 6.0 mph9.7 kmh 30.01 in1016.3 mb 0.00 in0.0 mm 0.00 in0.0 mm 0.00 in0.0 mm
09:00 AM 63.9°F17.7°C 61.2°F16.2°C 91% 0.7 mph NW1.1 kmh NW 2.2 mph3.5 kmh 30.01 in1016.3 mb 0.00 in0.0 mm 0.00 in0.0 mm 0.00 in0.0 mm
08:00 AM 60.8°F16.0°C 60.2°F15.7°C 98% 1.6 mph SW2.6 kmh SW 3.8 mph6.1 kmh 30.00 in1015.9 mb 0.00 in0.0 mm 0.00 in0.0 mm 0.00 in0.0 mm
07:30 AM 59.4°F15.2°C 59.1°F15.1°C 99% 0.7 mph SW1.1 kmh SW 1.6 mph2.6 kmh 29.99 in1015.6 mb 0.00 in0.0 mm 0.00 in0.0 mm 0.00 in0.0 mm
07:00 AM 59.2°F15.1°C 58.9°F14.9°C 99% 1.6 mph W2.6 kmh W 3.1 mph5.0 kmh 29.98 in1015.2 mb 0.00 in0.0 mm 0.00 in0.0 mm 0.00 in0.0 mm
06:30 AM 59.2°F15.1°C 58.9°F14.9°C 99% Calm Calm -- 29.98 in1015.2 mb 0.00 in0.0 mm 0.00 in0.0 mm 0.00 in0.0 mm
06:00 AM 59.4°F15.2°C 59.1°F15.1°C 99% Calm Calm 1.6 mph2.6 kmh 29.98 in1015.2 mb 0.00 in0.0 mm 0.00 in0.0 mm 0.00 in0.0 mm
05:30 AM 59.4°F15.2°C 59.1°F15.1°C 99% 0.7 mph SW1.1 kmh SW 3.1 mph5.0 kmh 29.97 in1014.9 mb 0.00 in0.0 mm 0.00 in0.0 mm 0.00 in0.0 mm
05:00 AM 59.4°F15.2°C 59.1°F15.1°C 99% 2.2 mph SW3.5 kmh SW 3.8 mph6.1 kmh 29.98 in1015.2 mb 0.00 in0.0 mm 0.00 in0.0 mm 0.00 in0.0 mm
04:30 AM 59.4°F15.2°C 59.1°F15.1°C 99% Calm Calm 1.6 mph2.6 kmh 29.98 in1015.2 mb 0.00 in0.0 mm 0.00 in0.0 mm 0.00 in0.0 mm
04:00 AM 59.4°F15.2°C 59.1°F15.1°C 99% 3.1 mph SW5.0 kmh SW 3.8 mph6.1 kmh 29.98 in1015.2 mb 0.00 in0.0 mm 0.00 in0.0 mm 0.00 in0.0 mm
03:30 AM 59.2°F15.1°C 58.9°F14.9°C 99% 1.6 mph SW2.6 kmh SW 2.2 mph3.5 kmh 29.98 in1015.2 mb 0.00 in0.0 mm 0.00 in0.0 mm 0.00 in0.0 mm
03:00 AM 59.0°F15.0°C 58.4°F14.7°C 98% Calm Calm -- 29.98 in1015.2 mb 0.00 in0.0 mm 0.00 in0.0 mm 0.00 in0.0 mm
02:30 AM 59.4°F15.2°C 58.8°F14.9°C 98% Calm Calm -- 29.99 in1015.6 mb 0.00 in0.0 mm 0.00 in0.0 mm 0.00 in0.0 mm
02:00 AM 60.3°F15.7°C 59.7°F15.4°C 98% 0.7 mph W1.1 kmh W 2.2 mph3.5 kmh 29.99 in1015.6 mb 0.00 in0.0 mm 0.00 in0.0 mm 0.00 in0.0 mm
01:30 AM 60.6°F15.9°C 60.1°F15.6°C 98% 1.6 mph SW2.6 kmh SW 2.2 mph3.5 kmh 29.99 in1015.6 mb 0.00 in0.0 mm 0.00 in0.0 mm 0.00 in0.0 mm
01:00 AM 60.6°F15.9°C 60.1°F15.6°C 98% 4.5 mph SW7.2 kmh SW 7.6 mph12.2 kmh 29.99 in1015.6 mb 0.00 in0.0 mm 0.00 in0.0 mm 0.00 in0.0 mm
12:30 AM 60.3°F15.7°C 59.7°F15.4°C 98% 3.8 mph SW6.1 kmh SW 5.4 mph8.7 kmh 30.00 in1015.9 mb 0.00 in0.0 mm 0.00 in0.0 mm 0.00 in0.0 mm
12:00 AM 59.4°F15.2°C 58.5°F14.7°C 97% 1.6 mph W2.6 kmh W 3.8 mph6.1 kmh 30.01 in1016.3 mb 0.00 in0.0 mm 0.00 in0.0 mm 0.00 in0.0 mm